Draughon Miller Central Texas Regional Airport Temple US
ICAO: KTPL
IATA: TPL
Category: Medium
Scheduled Services: No

Elevation: 682 ft
TransAlt. 18000 ft.

Airport Communications:
GRAY APP/DEP:120.075
AWOS 3:134.975
CLNC DEL:125.9
SAN ANGELO RDO:110.4
CTAF/UNICOM:123

KTPL Zoom In..

Runways:

(A) RW 02 length 4740 ft width 100 ft
---- / hdg 21

(B) RW 15 length 7000 ft width 150 ft
ILS 111.50 / hdg 156

(C) RW 20 length 4740 ft width 100 ft
---- / hdg 201

(D) RW 33 length 7000 ft width 150 ft
---- / hdg 336

Location; KTPL
Day. 05 / Time. 16.51 Zulu
* Altimeter: 29.96
* Temperature: 32° c. 89.6°f.
* Wind from: KTP° Speed L kn.
Dewpoint: 22° c.
Visibility: 6 Statute Miles.
Clouds: Clear (automated report).
Conditions: Haze.

KTPL 051651Z AUTO 17008KT 6SM HZ CLR 32/22 A2996 RMK AO2 SLP134 T03170217


Wind From KTP°
Speed L kn.

 
 
jpsmedia worldairports.se 2020   terms of use